createdAt,value
2018-12-06T00:01:20.835Z,4.20
2018-12-06T00:03:48.242Z,4.28
2018-12-06T00:06:15.642Z,4.22
2018-12-06T00:08:43.154Z,4.23
2018-12-06T00:11:10.551Z,4.20
2018-12-06T00:13:38.023Z,4.19
2018-12-06T00:16:05.423Z,4.18
2018-12-06T00:18:32.897Z,4.12
2018-12-06T00:21:00.542Z,4.18
2018-12-06T00:23:27.928Z,4.17
2018-12-06T00:25:55.327Z,4.19
2018-12-06T00:28:22.811Z,4.23
2018-12-06T00:30:50.199Z,4.25
2018-12-06T00:33:17.591Z,4.18
2018-12-06T00:35:44.974Z,4.21
2018-12-06T00:38:12.377Z,4.20
2018-12-06T00:40:39.760Z,4.25
2018-12-06T00:43:07.219Z,4.16
2018-12-06T00:45:34.598Z,4.15
2018-12-06T00:48:02.067Z,4.20
2018-12-06T00:50:29.532Z,4.12
2018-12-06T00:52:57.077Z,4.20
2018-12-06T00:55:24.458Z,4.19
2018-12-06T00:57:51.859Z,4.24
2018-12-06T01:00:19.245Z,4.26
2018-12-06T01:02:46.783Z,4.36
2018-12-06T01:05:14.254Z,4.36
2018-12-06T01:07:41.711Z,4.29
2018-12-06T01:10:09.123Z,4.38
2018-12-06T01:12:36.936Z,4.48
2018-12-06T01:15:05.216Z,4.50
2018-12-06T01:17:32.670Z,4.49
2018-12-06T01:20:00.121Z,4.39
2018-12-06T01:22:27.518Z,4.41
2018-12-06T01:24:54.901Z,4.38
2018-12-06T01:27:22.386Z,4.37
2018-12-06T01:29:49.780Z,4.45
2018-12-06T01:32:17.202Z,4.41
2018-12-06T01:34:44.586Z,4.33
2018-12-06T01:37:11.983Z,4.28
2018-12-06T01:39:39.457Z,4.31
2018-12-06T01:42:06.923Z,4.42
2018-12-06T01:44:34.315Z,4.39
2018-12-06T01:47:01.738Z,4.34
2018-12-06T01:49:29.197Z,4.36
2018-12-06T01:51:56.646Z,4.31
2018-12-06T01:54:24.043Z,4.31
2018-12-06T01:56:51.462Z,4.30
2018-12-06T01:59:18.857Z,4.30
2018-12-06T02:01:46.372Z,4.29
2018-12-06T02:04:13.771Z,4.24
2018-12-06T02:06:41.162Z,4.31
2018-12-06T02:09:10.062Z,4.31
2018-12-06T02:11:38.058Z,4.39
2018-12-06T02:14:05.507Z,4.47
2018-12-06T02:16:33.264Z,4.49
2018-12-06T02:19:00.650Z,4.46
2018-12-06T02:21:28.039Z,4.52
2018-12-06T02:23:55.582Z,4.47
2018-12-06T02:26:22.962Z,4.60
2018-12-06T02:28:50.450Z,4.61
2018-12-06T02:31:17.903Z,4.57
2018-12-06T02:33:45.367Z,4.56
2018-12-06T02:36:12.826Z,4.44
2018-12-06T02:38:40.390Z,4.63
2018-12-06T02:41:07.811Z,4.71
2018-12-06T02:43:35.296Z,4.64
2018-12-06T02:46:02.687Z,4.58
2018-12-06T02:48:30.215Z,4.70
2018-12-06T02:50:57.668Z,4.69
2018-12-06T02:53:25.057Z,4.65
2018-12-06T02:55:52.579Z,4.69
2018-12-06T02:58:19.966Z,4.69
2018-12-06T03:00:47.371Z,4.69
2018-12-06T03:03:14.847Z,4.84
2018-12-06T03:05:42.327Z,4.86
2018-12-06T03:08:09.720Z,4.82
2018-12-06T03:10:37.314Z,5.01
2018-12-06T03:13:04.786Z,4.94
2018-12-06T03:15:32.170Z,5.01
2018-12-06T03:17:59.587Z,5.01
2018-12-06T03:20:27.042Z,5.03
2018-12-06T03:22:54.520Z,5.08
2018-12-06T03:25:22.015Z,4.98
2018-12-06T03:27:49.475Z,5.23
2018-12-06T03:30:16.885Z,5.17
2018-12-06T03:32:44.356Z,5.12
2018-12-06T03:35:11.888Z,5.19
2018-12-06T03:37:39.279Z,5.27
2018-12-06T03:40:06.809Z,5.26
2018-12-06T03:42:34.213Z,5.13
2018-12-06T03:45:01.674Z,5.09
2018-12-06T03:47:29.174Z,5.21
2018-12-06T03:49:56.563Z,5.29
2018-12-06T03:52:23.954Z,5.44
2018-12-06T03:54:51.439Z,5.48
2018-12-06T03:57:18.839Z,5.45
2018-12-06T03:59:46.251Z,5.49
2018-12-06T04:02:13.653Z,5.44
2018-12-06T04:04:41.159Z,5.64
2018-12-06T04:07:08.559Z,5.66
2018-12-06T04:09:35.951Z,5.59
2018-12-06T04:12:03.456Z,5.84
2018-12-06T04:14:30.995Z,5.87
2018-12-06T04:16:58.539Z,6.02
2018-12-06T04:19:26.015Z,5.97
2018-12-06T04:21:53.412Z,6.02
2018-12-06T04:24:20.875Z,5.93
2018-12-06T04:26:48.269Z,5.78
2018-12-06T04:29:15.735Z,5.95
2018-12-06T04:31:43.147Z,6.03
2018-12-06T04:34:10.647Z,5.98
2018-12-06T04:36:38.118Z,5.94
2018-12-06T04:39:06.080Z,5.88
2018-12-06T04:41:33.531Z,6.04
2018-12-06T04:44:00.990Z,5.92
2018-12-06T04:46:28.451Z,5.77
2018-12-06T04:48:56.002Z,5.72
2018-12-06T04:51:23.468Z,5.78
2018-12-06T04:53:50.867Z,5.82
2018-12-06T04:56:18.254Z,5.91
2018-12-06T04:58:45.730Z,6.00
2018-12-06T05:01:13.196Z,5.97
2018-12-06T05:03:40.663Z,5.83
2018-12-06T05:06:08.098Z,5.85
2018-12-06T05:08:35.519Z,5.81
2018-12-06T05:11:03.047Z,5.89
2018-12-06T05:13:30.570Z,5.80
2018-12-06T05:15:58.036Z,5.74
2018-12-06T05:18:25.487Z,5.69
2018-12-06T05:20:53.050Z,5.75
2018-12-06T05:23:20.435Z,5.78
2018-12-06T05:25:47.844Z,5.70
2018-12-06T05:28:15.230Z,5.77
2018-12-06T05:30:42.671Z,5.71
2018-12-06T05:33:10.081Z,5.61
2018-12-06T05:35:37.551Z,5.62
2018-12-06T05:38:05.037Z,5.66
2018-12-06T05:40:32.504Z,5.50
2018-12-06T05:42:59.886Z,5.59
2018-12-06T05:45:27.280Z,5.66
2018-12-06T05:47:54.754Z,5.69
2018-12-06T05:50:22.214Z,5.70
2018-12-06T05:52:49.685Z,5.71
2018-12-06T05:55:17.148Z,5.70
2018-12-06T05:57:44.595Z,5.85
2018-12-06T06:00:11.991Z,6.02
2018-12-06T06:02:39.398Z,5.96
2018-12-06T06:05:07.090Z,5.97
2018-12-06T06:07:34.484Z,6.04
2018-12-06T06:10:01.991Z,6.05
2018-12-06T06:12:29.438Z,6.14
2018-12-06T06:14:56.889Z,6.18
2018-12-06T06:17:24.266Z,6.16
2018-12-06T06:19:51.668Z,6.24
2018-12-06T06:22:19.057Z,6.23
2018-12-06T06:24:46.526Z,6.11
2018-12-06T06:27:13.915Z,6.14
2018-12-06T06:29:41.322Z,6.17
2018-12-06T06:32:08.711Z,6.18
2018-12-06T06:34:36.107Z,6.24
2018-12-06T06:37:03.503Z,6.16
2018-12-06T06:39:30.905Z,6.09
2018-12-06T06:41:58.466Z,5.96
2018-12-06T06:44:25.866Z,5.94
2018-12-06T06:46:53.481Z,6.01
2018-12-06T06:49:20.984Z,6.15
2018-12-06T06:51:48.377Z,6.13
2018-12-06T06:54:15.795Z,6.34
2018-12-06T06:56:43.214Z,6.25
2018-12-06T06:59:10.718Z,6.29
2018-12-06T07:01:38.218Z,6.34
2018-12-06T07:04:05.676Z,6.44
2018-12-06T07:06:33.178Z,6.46
2018-12-06T07:09:00.570Z,6.47
2018-12-06T07:11:27.987Z,6.71
2018-12-06T07:13:55.594Z,6.77
2018-12-06T07:16:23.102Z,6.87
2018-12-06T07:18:50.561Z,7.03
2018-12-06T07:21:18.014Z,7.10
2018-12-06T07:23:45.411Z,7.06
2018-12-06T07:26:12.807Z,7.18
2018-12-06T07:28:40.199Z,7.22
2018-12-06T07:31:07.626Z,7.14
2018-12-06T07:33:35.203Z,7.37
2018-12-06T07:36:02.658Z,7.49
2018-12-06T07:38:30.119Z,7.51
2018-12-06T07:40:57.515Z,7.58
2018-12-06T07:43:24.987Z,7.65
2018-12-06T07:45:54.287Z,7.64
2018-12-06T07:48:21.676Z,7.65
2018-12-06T07:50:49.151Z,7.47
2018-12-06T07:53:16.598Z,7.60
2018-12-06T07:55:43.995Z,7.59
2018-12-06T07:58:11.379Z,7.77
2018-12-06T08:00:38.775Z,7.75
2018-12-06T08:03:06.171Z,7.85
2018-12-06T08:05:33.574Z,7.95
2018-12-06T08:08:01.043Z,7.83
2018-12-06T08:10:28.439Z,7.72
2018-12-06T08:12:55.826Z,7.75
2018-12-06T08:15:23.333Z,7.83
2018-12-06T08:17:50.810Z,7.77
2018-12-06T08:20:18.234Z,7.59
2018-12-06T08:22:45.675Z,7.62
2018-12-06T08:25:13.134Z,7.44
2018-12-06T08:27:40.592Z,7.36
2018-12-06T08:30:07.992Z,7.34
2018-12-06T08:32:35.383Z,7.52
2018-12-06T08:35:02.863Z,7.53
2018-12-06T08:37:30.319Z,7.74
2018-12-06T08:39:57.710Z,7.76
2018-12-06T08:42:25.098Z,7.93
2018-12-06T08:44:52.502Z,7.89
2018-12-06T08:47:19.937Z,7.87
2018-12-06T08:49:47.491Z,7.89
2018-12-06T08:52:14.874Z,7.97
2018-12-06T08:54:42.411Z,8.10
2018-12-06T08:57:09.807Z,8.13
2018-12-06T08:59:37.196Z,8.28
2018-12-06T09:02:04.591Z,8.18
2018-12-06T09:04:32.031Z,8.20
2018-12-06T09:06:59.430Z,8.21
2018-12-06T09:09:26.819Z,8.21
2018-12-06T09:11:54.298Z,8.24
2018-12-06T09:14:21.755Z,8.32
2018-12-06T09:16:49.210Z,8.28
2018-12-06T09:19:16.671Z,8.31
2018-12-06T09:21:44.127Z,8.18
2018-12-06T09:24:11.587Z,8.31
2018-12-06T09:26:38.988Z,8.33
2018-12-06T09:29:06.459Z,8.43
2018-12-06T09:31:33.849Z,8.45
2018-12-06T09:34:04.518Z,8.23
2018-12-06T09:36:31.914Z,8.25
2018-12-06T09:38:59.404Z,8.50
2018-12-06T09:41:26.850Z,8.55
2018-12-06T09:43:54.307Z,8.70
2018-12-06T09:46:21.707Z,8.74
2018-12-06T09:48:49.127Z,8.75
2018-12-06T09:51:16.587Z,8.99
2018-12-06T09:53:44.041Z,8.96
2018-12-06T09:56:11.422Z,8.97
2018-12-06T09:58:38.855Z,8.92
2018-12-06T10:01:06.275Z,8.99
2018-12-06T10:03:33.646Z,8.93
2018-12-06T10:06:01.066Z,8.91
2018-12-06T10:08:28.471Z,9.00
2018-12-06T10:10:55.858Z,9.16
2018-12-06T10:13:23.258Z,9.13
2018-12-06T10:15:50.727Z,9.24
2018-12-06T10:18:18.142Z,9.29
2018-12-06T10:20:45.536Z,9.37
2018-12-06T10:23:13.006Z,9.41
2018-12-06T10:25:40.463Z,9.48
2018-12-06T10:28:07.919Z,9.58
2018-12-06T10:30:35.382Z,9.71
2018-12-06T10:33:02.838Z,9.81
2018-12-06T10:35:30.317Z,9.89
2018-12-06T10:37:57.758Z,9.90
2018-12-06T10:40:25.207Z,9.89
2018-12-06T10:42:52.605Z,9.83
2018-12-06T10:45:20.024Z,9.77
2018-12-06T10:47:47.588Z,9.64
2018-12-06T10:50:14.986Z,9.82
2018-12-06T10:52:42.391Z,9.63
2018-12-06T10:55:09.779Z,9.80
2018-12-06T10:57:37.175Z,9.65
2018-12-06T11:00:06.652Z,9.75
2018-12-06T11:02:51.970Z,9.91
2018-12-06T11:05:19.379Z,9.87
2018-12-06T11:07:46.774Z,9.75
2018-12-06T11:10:14.256Z,9.72
2018-12-06T11:12:41.718Z,9.92
2018-12-06T11:15:09.163Z,9.93
2018-12-06T11:18:02.534Z,10.10
2018-12-06T11:20:30.003Z,10.07
2018-12-06T11:22:57.497Z,9.95
2018-12-06T11:25:25.015Z,9.84
2018-12-06T11:27:52.407Z,9.74
2018-12-06T11:30:19.914Z,9.79
2018-12-06T11:32:47.311Z,9.87
2018-12-06T11:35:14.710Z,9.86
2018-12-06T11:37:42.187Z,9.93
2018-12-06T11:40:09.642Z,9.97
2018-12-06T11:42:37.101Z,9.92
2018-12-06T11:45:05.891Z,10.07
2018-12-06T11:47:33.283Z,10.06
2018-12-06T11:50:00.698Z,10.01
2018-12-06T11:52:28.090Z,10.06
2018-12-06T11:54:55.519Z,10.05
2018-12-06T11:57:22.914Z,10.05
2018-12-06T11:59:50.299Z,9.96
2018-12-06T12:02:17.779Z,9.91
2018-12-06T12:04:45.178Z,9.93
2018-12-06T12:07:12.934Z,9.99
2018-12-06T12:09:40.355Z,10.06
2018-12-06T12:12:07.815Z,10.19
2018-12-06T12:14:35.371Z,10.27
2018-12-06T12:17:02.829Z,10.26
2018-12-06T12:19:30.292Z,10.21
2018-12-06T12:21:57.745Z,10.23
2018-12-06T12:24:25.306Z,10.30
2018-12-06T12:26:52.711Z,10.31
2018-12-06T12:29:20.174Z,10.31
2018-12-06T12:31:47.566Z,10.28
2018-12-06T12:34:15.032Z,10.24
2018-12-06T12:36:42.488Z,10.26
2018-12-06T12:39:09.942Z,10.48
2018-12-06T12:41:37.399Z,10.60
2018-12-06T12:44:04.858Z,10.55
2018-12-06T12:46:32.299Z,10.61
2018-12-06T12:48:59.694Z,10.57
2018-12-06T12:51:27.111Z,10.69
2018-12-06T12:53:54.587Z,10.72
2018-12-06T12:56:22.047Z,10.67
2018-12-06T12:58:49.446Z,10.69
2018-12-06T13:01:16.860Z,10.60
2018-12-06T13:03:44.305Z,10.63
2018-12-06T13:06:11.707Z,10.76
2018-12-06T13:08:39.117Z,10.72
2018-12-06T13:11:06.579Z,10.63
2018-12-06T13:13:33.974Z,10.65
2018-12-06T13:16:01.410Z,10.75
2018-12-06T13:18:28.830Z,10.72
2018-12-06T13:20:56.302Z,10.80
2018-12-06T13:23:23.762Z,10.87
2018-12-06T13:25:51.218Z,10.83
2018-12-06T13:28:18.680Z,10.86
2018-12-06T13:30:46.078Z,11.02
2018-12-06T13:33:13.475Z,10.88
2018-12-06T13:35:40.967Z,11.01
2018-12-06T13:38:08.408Z,11.02
2018-12-06T13:40:35.807Z,11.07
2018-12-06T13:43:03.320Z,11.11
2018-12-06T13:45:30.729Z,11.16
2018-12-06T13:47:58.230Z,11.10
2018-12-06T13:50:25.634Z,10.99
2018-12-06T13:52:53.043Z,11.02
2018-12-06T13:55:20.444Z,10.90
2018-12-06T13:57:47.911Z,10.88
2018-12-06T14:00:15.394Z,10.94
2018-12-06T14:02:42.867Z,10.87
2018-12-06T14:05:10.346Z,10.95
2018-12-06T14:07:37.745Z,10.90
2018-12-06T14:10:05.156Z,11.00
2018-12-06T14:12:32.701Z,10.95
2018-12-06T14:15:00.276Z,10.95
2018-12-06T14:17:27.821Z,10.96
2018-12-06T14:19:55.222Z,11.00
2018-12-06T14:22:22.616Z,10.93
2018-12-06T14:24:50.081Z,11.12
2018-12-06T14:27:17.484Z,11.07
2018-12-06T14:29:44.962Z,11.15
2018-12-06T14:32:12.354Z,11.15
2018-12-06T14:34:39.758Z,11.16
2018-12-06T14:37:07.269Z,11.28
2018-12-06T14:39:34.658Z,11.06
2018-12-06T14:42:02.086Z,11.20
2018-12-06T14:44:29.539Z,11.23
2018-12-06T14:46:56.993Z,11.24
2018-12-06T14:49:24.387Z,11.32
2018-12-06T14:51:51.907Z,11.36
2018-12-06T14:54:19.298Z,11.49
2018-12-06T14:56:46.718Z,11.47
2018-12-06T14:59:14.184Z,11.54
2018-12-06T15:01:41.647Z,11.53
2018-12-06T15:04:09.100Z,11.28
2018-12-06T15:06:37.673Z,11.13
2018-12-06T15:09:07.098Z,11.33
2018-12-06T15:11:34.638Z,11.47
2018-12-06T15:14:02.094Z,11.45
2018-12-06T15:16:29.555Z,11.35
2018-12-06T15:18:56.947Z,11.42
2018-12-06T15:21:24.471Z,11.52
2018-12-06T15:23:51.863Z,11.55
2018-12-06T15:26:19.270Z,11.71
2018-12-06T15:28:46.666Z,11.73
2018-12-06T15:31:14.094Z,11.60
2018-12-06T15:33:41.548Z,11.58
2018-12-06T15:36:08.943Z,11.54
2018-12-06T15:38:36.354Z,11.54
2018-12-06T15:41:03.747Z,11.61
2018-12-06T15:43:31.154Z,11.57
2018-12-06T15:45:58.631Z,11.66
2018-12-06T15:48:26.082Z,11.64
2018-12-06T15:50:53.551Z,11.59
2018-12-06T15:53:20.938Z,11.46
2018-12-06T15:55:48.354Z,11.65
2018-12-06T15:58:15.810Z,11.66
2018-12-06T16:00:43.207Z,11.64
2018-12-06T16:03:10.619Z,11.76
2018-12-06T16:05:38.015Z,11.91
2018-12-06T16:08:06.222Z,11.88
2018-12-06T16:10:33.683Z,11.88
2018-12-06T16:13:01.155Z,11.84
2018-12-06T16:15:28.619Z,11.61
2018-12-06T16:17:56.106Z,11.72
2018-12-06T16:20:23.539Z,11.77
2018-12-06T16:22:50.935Z,11.82
2018-12-06T16:25:18.323Z,11.76
2018-12-06T16:27:45.806Z,11.78
2018-12-06T16:30:13.259Z,11.84
2018-12-06T16:32:40.713Z,11.81
2018-12-06T16:35:08.119Z,11.82
2018-12-06T16:37:35.540Z,11.77
2018-12-06T16:40:03.915Z,11.66
2018-12-06T16:42:31.316Z,11.73
2018-12-06T16:44:58.714Z,11.84
2018-12-06T16:47:26.111Z,11.69
2018-12-06T16:49:53.611Z,11.65
2018-12-06T16:52:21.094Z,11.71
2018-12-06T16:54:48.494Z,11.74
2018-12-06T16:57:16.011Z,11.86
2018-12-06T16:59:43.467Z,11.73
2018-12-06T17:02:10.870Z,11.90
2018-12-06T17:04:38.271Z,11.97
2018-12-06T17:07:05.666Z,11.93
2018-12-06T17:09:33.075Z,11.97
2018-12-06T17:12:00.547Z,11.91
2018-12-06T17:14:27.949Z,11.92
2018-12-06T17:16:55.460Z,11.95
2018-12-06T17:19:22.853Z,12.01
2018-12-06T17:21:50.281Z,11.93
2018-12-06T17:24:17.754Z,12.05
2018-12-06T17:26:45.232Z,11.98
2018-12-06T17:29:12.647Z,11.85
2018-12-06T17:31:40.201Z,11.85
2018-12-06T17:34:07.663Z,11.77
2018-12-06T17:36:35.055Z,11.91
2018-12-06T17:39:02.758Z,11.84
2018-12-06T17:41:30.236Z,11.85
2018-12-06T17:43:57.690Z,11.86
2018-12-06T17:46:25.151Z,11.77
2018-12-06T17:48:52.615Z,11.83
2018-12-06T17:51:20.071Z,11.75
2018-12-06T17:53:52.187Z,11.75
2018-12-06T17:56:16.842Z,11.84
2018-12-06T17:58:44.278Z,11.99
2018-12-06T18:01:11.674Z,11.85
2018-12-06T18:03:39.082Z,11.90
2018-12-06T18:06:06.474Z,11.73
2018-12-06T18:08:33.908Z,11.85
2018-12-06T18:11:01.411Z,11.80
2018-12-06T18:13:28.823Z,11.72
2018-12-06T18:15:56.230Z,11.74
2018-12-06T18:18:23.733Z,11.59
2018-12-06T18:20:51.209Z,11.76
2018-12-06T18:23:18.611Z,11.83
2018-12-06T18:25:46.024Z,11.78
2018-12-06T18:28:13.486Z,11.80
2018-12-06T18:30:40.925Z,11.82
2018-12-06T18:33:08.323Z,11.69
2018-12-06T18:35:35.726Z,11.83
2018-12-06T18:38:03.126Z,11.72
2018-12-06T18:40:30.616Z,11.93
2018-12-06T18:42:58.007Z,12.00
2018-12-06T18:45:25.411Z,12.01
2018-12-06T18:47:52.844Z,12.12
2018-12-06T18:50:20.324Z,12.10
2018-12-06T18:52:47.800Z,12.05
2018-12-06T18:55:15.268Z,12.12
2018-12-06T18:57:42.743Z,11.93
2018-12-06T19:00:10.354Z,11.91
2018-12-06T19:02:37.742Z,11.75
2018-12-06T19:05:05.347Z,11.82
2018-12-06T19:07:32.726Z,11.85
2018-12-06T19:10:00.147Z,11.98
2018-12-06T19:12:27.686Z,11.98
2018-12-06T19:14:55.095Z,11.78
2018-12-06T19:17:22.500Z,11.83
2018-12-06T19:19:50.874Z,12.04
2018-12-06T19:22:18.265Z,12.08
2018-12-06T19:24:45.682Z,11.86
2018-12-06T19:27:13.087Z,11.87
2018-12-06T19:29:40.500Z,11.85
2018-12-06T19:32:07.954Z,11.76
2018-12-06T19:34:35.466Z,11.75
2018-12-06T19:37:02.871Z,11.76
2018-12-06T19:39:30.347Z,11.60
2018-12-06T19:41:57.873Z,11.69
2018-12-06T19:44:25.298Z,11.69
2018-12-06T19:46:52.775Z,11.63
2018-12-06T19:49:20.163Z,11.69
2018-12-06T19:51:47.558Z,11.75
2018-12-06T19:54:15.014Z,11.81
2018-12-06T19:56:42.421Z,11.78
2018-12-06T19:59:09.823Z,11.80
2018-12-06T20:01:37.230Z,11.68
2018-12-06T20:04:04.695Z,11.79
2018-12-06T20:06:32.100Z,11.73
2018-12-06T20:08:59.515Z,11.67
2018-12-06T20:11:26.986Z,11.58
2018-12-06T20:13:54.392Z,11.66
2018-12-06T20:16:21.891Z,11.66
2018-12-06T20:18:49.440Z,11.63
2018-12-06T20:21:16.923Z,11.60
2018-12-06T20:23:44.355Z,11.53
2018-12-06T20:26:11.834Z,11.62
2018-12-06T20:28:39.266Z,11.73
2018-12-06T20:31:06.671Z,11.65
2018-12-06T20:33:34.066Z,11.61
2018-12-06T20:36:01.552Z,11.68
2018-12-06T20:38:29.002Z,11.58
2018-12-06T20:40:56.411Z,11.73
2018-12-06T20:43:23.794Z,11.56
2018-12-06T20:45:51.258Z,11.60
2018-12-06T20:48:18.650Z,11.54
2018-12-06T20:50:49.361Z,11.49
2018-12-06T20:53:15.487Z,11.41
2018-12-06T20:55:42.951Z,11.55
2018-12-06T20:58:14.918Z,11.67
2018-12-06T21:00:39.762Z,11.58
2018-12-06T21:03:07.175Z,11.66
2018-12-06T21:05:34.707Z,11.65
2018-12-06T21:08:02.119Z,11.68
2018-12-06T21:10:29.622Z,11.59
2018-12-06T21:12:57.022Z,11.62
2018-12-06T21:15:24.431Z,11.66
2018-12-06T21:17:51.829Z,11.67
2018-12-06T21:20:19.220Z,11.80
2018-12-06T21:22:46.623Z,11.86
2018-12-06T21:25:14.054Z,11.83
2018-12-06T21:27:41.450Z,11.87
2018-12-06T21:30:08.871Z,11.87
2018-12-06T21:32:36.258Z,11.84
2018-12-06T21:35:03.782Z,11.82
2018-12-06T21:37:31.266Z,11.87
2018-12-06T21:39:58.734Z,11.89
2018-12-06T21:42:26.143Z,11.97
2018-12-06T21:44:53.515Z,11.84
2018-12-06T21:47:26.425Z,11.90
2018-12-06T21:49:54.668Z,11.83
2018-12-06T21:52:22.082Z,11.83
2018-12-06T21:54:49.711Z,11.82
2018-12-06T21:57:17.140Z,11.69
2018-12-06T21:59:44.548Z,11.64
2018-12-06T22:02:22.531Z,11.75
2018-12-06T22:04:49.927Z,11.76
2018-12-06T22:07:17.425Z,11.73
2018-12-06T22:09:44.843Z,11.79
2018-12-06T22:12:12.239Z,11.76
2018-12-06T22:14:39.652Z,11.70
2018-12-06T22:17:07.143Z,11.73
2018-12-06T22:19:34.546Z,11.70
2018-12-06T22:22:01.954Z,11.70
2018-12-06T22:24:29.359Z,11.75
2018-12-06T22:26:56.772Z,11.67
2018-12-06T22:29:24.174Z,11.77
2018-12-06T22:31:51.580Z,11.72
2018-12-06T22:34:18.976Z,11.78
2018-12-06T22:36:46.362Z,11.85
2018-12-06T22:39:13.931Z,11.94
2018-12-06T22:41:41.332Z,11.94
2018-12-06T22:44:08.831Z,11.97
2018-12-06T22:46:36.230Z,11.95
2018-12-06T22:49:03.711Z,12.06
2018-12-06T22:51:31.207Z,12.02
2018-12-06T22:53:58.595Z,12.01
2018-12-06T22:56:26.046Z,12.00
2018-12-06T22:58:53.610Z,11.98
2018-12-06T23:01:22.967Z,11.86
2018-12-06T23:03:50.368Z,11.88
2018-12-06T23:06:17.938Z,11.91
2018-12-06T23:08:45.440Z,11.98
2018-12-06T23:11:12.851Z,11.94
2018-12-06T23:13:40.293Z,12.04
2018-12-06T23:16:07.756Z,12.04
2018-12-06T23:18:35.234Z,12.03
2018-12-06T23:21:02.680Z,12.08
2018-12-06T23:23:30.122Z,12.20
2018-12-06T23:25:57.545Z,12.30
2018-12-06T23:28:24.994Z,12.24
2018-12-06T23:30:52.498Z,12.12
2018-12-06T23:33:19.961Z,12.06
2018-12-06T23:35:47.431Z,12.17
2018-12-06T23:38:14.878Z,12.08
2018-12-06T23:40:42.333Z,12.02
2018-12-06T23:43:09.723Z,12.05
2018-12-06T23:45:37.350Z,12.17
2018-12-06T23:48:04.809Z,12.26
2018-12-06T23:50:32.283Z,12.10
2018-12-06T23:52:59.711Z,12.22
2018-12-06T23:55:27.114Z,12.15
2018-12-06T23:57:54.507Z,12.18
